LECO/LCG METAR and TAF weather

Enter ICAO airport designator
Station Type Date Time Source
LECO METAR 2020/09/21 09:00 UTC NOAA

LECO 210900Z 21005KT 140V240 CAVOK 18/16 Q1019 NOSIG


Station Type Date Time Source
LECO Decoded METAR 2020/09/21 09:00 UTC NOAA

La Coruna / Alvedro, Spain (LECO) 43-18N 008-23W 103M
Sep 21, 2020 - 05:00 AM EDT / 2020.09.21 0900 UTC
Wind: from the SSW (210 degrees) at 6 MPH (5 KT) (direction variable):0
Visibility: greater than 7 mile(s):0
Temperature: 64 F (18 C)
Dew Point: 60 F (16 C)
Relative Humidity: 88%
Pressure (altimeter): 30.09 in. Hg (1019 hPa)
ob: LECO 210900Z 21005KT 140V240 CAVOK 18/16 Q1019 NOSIG
cycle: 9

Station Type Date Time Source
LECO TAF 2020/09/21 09:27 UTC NOAA

TAF LECO 210800Z 2109/2209 VRB04KT 9999 FEW020 SCT040 TX20/2112Z TN13/2206Z PROB40
TEMPO 2112/2115 3000 RA PROB30
TEMPO 2115/2121 RA BKN010
TEMPO 2121/2208 3000 BR BCFG PROB30
TEMPO 2201/2207 0350 FG VV001

Example: see airport list